createdAt,value
2023-05-11T00:01:13.413Z,3.90
2023-05-11T00:06:15.220Z,4.10
2023-05-11T00:11:18.191Z,4.00
2023-05-11T00:16:20.026Z,3.90
2023-05-11T00:21:22.565Z,5.50
2023-05-11T00:26:24.452Z,5.00
2023-05-11T00:31:29.540Z,5.00
2023-05-11T00:36:32.906Z,4.70
2023-05-11T00:41:34.784Z,4.00
2023-05-11T00:46:37.518Z,3.90
2023-05-11T00:51:39.454Z,4.00
2023-05-11T00:56:42.067Z,3.40
2023-05-11T01:01:44.276Z,3.30
2023-05-11T01:07:24.424Z,3.90
2023-05-11T01:12:55.577Z,3.90
2023-05-11T01:18:15.792Z,3.60
2023-05-11T01:24:04.262Z,3.60
2023-05-11T01:29:21.304Z,3.00
2023-05-11T01:34:30.023Z,3.20
2023-05-11T01:39:42.448Z,4.30
2023-05-11T01:44:49.991Z,3.60
2023-05-11T01:49:53.780Z,4.00
2023-05-11T01:54:58.849Z,3.90
2023-05-11T02:00:02.056Z,5.30
2023-05-11T02:05:07.338Z,3.80
2023-05-11T02:10:11.638Z,3.80
2023-05-11T02:15:16.596Z,4.00
2023-05-11T02:20:20.448Z,4.70
2023-05-11T02:25:24.074Z,4.70
2023-05-11T02:30:30.870Z,4.40
2023-05-11T02:35:38.851Z,3.90
2023-05-11T02:40:48.610Z,4.10
2023-05-11T02:45:58.729Z,3.80
2023-05-11T02:51:02.918Z,4.10
2023-05-11T02:56:05.805Z,3.90
2023-05-11T03:01:07.717Z,4.10
2023-05-11T03:06:09.555Z,4.00
2023-05-11T03:11:14.311Z,3.60
2023-05-11T03:16:19.620Z,4.40
2023-05-11T03:21:25.405Z,4.60
2023-05-11T03:26:30.000Z,4.00
2023-05-11T03:31:31.863Z,6.10
2023-05-11T03:36:35.476Z,6.00
2023-05-11T03:41:40.626Z,5.80
2023-05-11T03:46:45.583Z,5.50
2023-05-11T03:51:48.300Z,3.60
2023-05-11T03:56:51.801Z,4.50
2023-05-11T04:01:54.601Z,4.20
2023-05-11T04:06:58.102Z,4.10
2023-05-11T04:12:00.285Z,4.90
2023-05-11T04:17:02.168Z,4.00
2023-05-11T04:22:03.942Z,3.90
2023-05-11T04:27:06.133Z,4.00
2023-05-11T04:32:07.901Z,3.10
2023-05-11T04:37:09.669Z,3.40
2023-05-11T04:42:11.558Z,3.80
2023-05-11T04:47:15.067Z,3.20
2023-05-11T04:52:16.853Z,4.00
2023-05-11T04:57:18.680Z,3.80
2023-05-11T05:02:20.527Z,3.80
2023-05-11T05:07:22.483Z,3.90
2023-05-11T05:12:24.254Z,3.80
2023-05-11T05:17:26.131Z,4.00
2023-05-11T05:22:28.109Z,3.80
2023-05-11T05:27:32.282Z,3.60
2023-05-11T05:32:35.985Z,3.20
2023-05-11T05:37:37.869Z,3.40
2023-05-11T05:42:40.433Z,3.40
2023-05-11T05:47:42.281Z,3.20
2023-05-11T05:52:44.103Z,2.70
2023-05-11T05:57:45.987Z,3.10
2023-05-11T06:02:47.854Z,2.80
2023-05-11T06:08:01.736Z,2.30
2023-05-11T06:13:11.606Z,2.40
2023-05-11T06:18:14.929Z,2.30
2023-05-11T06:23:16.868Z,3.00
2023-05-11T06:28:18.871Z,2.00
2023-05-11T06:33:20.614Z,2.10
2023-05-11T06:38:22.708Z,2.40
2023-05-11T06:43:24.675Z,2.90
2023-05-11T06:48:29.342Z,1.90
2023-05-11T06:53:31.098Z,2.10
2023-05-11T06:58:32.972Z,2.20
2023-05-11T07:03:35.355Z,1.60
2023-05-11T07:08:37.366Z,1.90
2023-05-11T07:13:39.349Z,2.70
2023-05-11T07:18:41.146Z,2.50
2023-05-11T07:23:44.097Z,2.20
2023-05-11T07:28:45.871Z,2.30
2023-05-11T07:33:48.067Z,2.30
2023-05-11T07:38:49.828Z,2.20
2023-05-11T07:43:52.321Z,2.00
2023-05-11T07:49:03.594Z,2.30
2023-05-11T07:54:16.058Z,2.10
2023-05-11T07:59:18.136Z,2.40
2023-05-11T08:04:19.899Z,1.90
2023-05-11T08:09:22.505Z,2.30
2023-05-11T08:14:25.225Z,2.00
2023-05-11T08:19:27.182Z,2.00
2023-05-11T08:24:28.951Z,1.90
2023-05-11T08:29:31.243Z,2.20
2023-05-11T08:34:33.088Z,2.10
2023-05-11T08:39:46.696Z,2.10
2023-05-11T08:44:54.592Z,2.10
2023-05-11T08:49:57.891Z,2.10
2023-05-11T08:54:59.981Z,2.40
2023-05-11T09:00:04.040Z,1.80
2023-05-11T09:05:07.151Z,1.70
2023-05-11T09:10:11.466Z,1.80
2023-05-11T09:15:14.764Z,1.80
2023-05-11T09:20:28.523Z,2.20
2023-05-11T09:25:34.398Z,1.50
2023-05-11T09:30:36.165Z,1.60
2023-05-11T09:35:38.252Z,1.90
2023-05-11T09:40:49.975Z,1.80
2023-05-11T09:45:55.561Z,1.90
2023-05-11T09:51:05.590Z,2.50
2023-05-11T09:56:08.211Z,1.50
2023-05-11T10:01:10.385Z,1.40
2023-05-11T10:06:12.255Z,1.80
2023-05-11T10:11:14.639Z,1.80
2023-05-11T10:16:17.877Z,1.60
2023-05-11T10:21:20.742Z,2.60
2023-05-11T10:26:24.922Z,2.10
2023-05-11T10:31:28.088Z,1.80
2023-05-11T10:36:30.383Z,1.90
2023-05-11T10:42:01.547Z,2.10
2023-05-11T10:47:39.700Z,1.80
2023-05-11T10:52:50.548Z,2.20
2023-05-11T10:58:37.620Z,2.00
2023-05-11T11:03:39.674Z,2.00
2023-05-11T11:08:57.620Z,2.30
2023-05-11T11:14:03.076Z,2.20
2023-05-11T11:19:31.077Z,1.90
2023-05-11T11:24:38.900Z,1.90
2023-05-11T11:29:41.242Z,1.90
2023-05-11T11:34:43.682Z,1.70
2023-05-11T11:39:49.524Z,1.80
2023-05-11T11:44:52.041Z,1.70
2023-05-11T11:49:55.156Z,2.00
2023-05-11T11:55:03.502Z,1.90
2023-05-11T12:00:11.024Z,2.00
2023-05-11T12:05:18.365Z,1.80
2023-05-11T12:10:22.735Z,2.20
2023-05-11T12:15:27.751Z,1.90
2023-05-11T12:20:29.441Z,2.40
2023-05-11T12:25:31.316Z,1.90
2023-05-11T12:30:34.434Z,2.70
2023-05-11T12:35:38.460Z,1.80
2023-05-11T12:40:50.529Z,2.60
2023-05-11T12:45:52.588Z,1.70
2023-05-11T12:50:54.530Z,1.80
2023-05-11T12:56:00.317Z,2.00
2023-05-11T13:01:02.505Z,1.90
2023-05-11T13:06:12.152Z,2.10
2023-05-11T13:11:22.837Z,1.90
2023-05-11T13:16:30.641Z,1.50
2023-05-11T13:21:33.108Z,2.20
2023-05-11T13:26:35.023Z,2.00
2023-05-11T13:31:52.845Z,1.90
2023-05-11T13:36:54.643Z,2.00
2023-05-11T13:41:56.524Z,1.90
2023-05-11T13:46:58.435Z,2.10
2023-05-11T13:52:00.269Z,2.40
2023-05-11T13:57:02.977Z,1.80
2023-05-11T14:02:05.598Z,2.00
2023-05-11T14:07:07.888Z,1.90
2023-05-11T14:12:10.142Z,2.30
2023-05-11T14:17:13.099Z,2.60
2023-05-11T14:22:15.028Z,2.20
2023-05-11T14:27:17.120Z,2.10
2023-05-11T14:32:19.630Z,1.90
2023-05-11T14:37:22.089Z,2.10
2023-05-11T14:42:23.973Z,1.70
2023-05-11T14:47:25.889Z,1.70
2023-05-11T14:52:27.721Z,1.70
2023-05-11T14:57:29.624Z,2.20
2023-05-11T15:02:31.637Z,2.30
2023-05-11T15:07:33.683Z,1.90
2023-05-11T15:12:35.633Z,2.20
2023-05-11T15:17:37.446Z,1.90
2023-05-11T15:22:39.225Z,1.80
2023-05-11T15:27:41.576Z,1.70
2023-05-11T15:32:43.977Z,1.80
2023-05-11T15:37:46.519Z,1.70
2023-05-11T15:42:48.344Z,1.90
2023-05-11T15:47:50.262Z,2.10
2023-05-11T15:52:52.001Z,2.00
2023-05-11T15:57:53.885Z,2.10
2023-05-11T16:02:55.837Z,2.70
2023-05-11T16:07:57.728Z,2.20
2023-05-11T16:12:59.504Z,2.30
2023-05-11T16:18:03.925Z,1.90
2023-05-11T16:23:07.043Z,2.70
2023-05-11T16:28:08.863Z,2.30
2023-05-11T16:33:10.769Z,2.90
2023-05-11T16:38:21.072Z,20.60
2023-05-11T16:43:23.061Z,9.40
2023-05-11T16:48:27.403Z,4.10
2023-05-11T16:53:29.509Z,2.90
2023-05-11T16:58:31.583Z,4.30
2023-05-11T17:03:34.089Z,2.90
2023-05-11T17:08:36.066Z,2.80
2023-05-11T17:13:39.135Z,3.10
2023-05-11T17:18:41.084Z,2.60
2023-05-11T17:23:44.633Z,3.70
2023-05-11T17:28:46.925Z,7.40
2023-05-11T17:33:48.941Z,10.20
2023-05-11T17:38:51.621Z,4.50
2023-05-11T17:43:53.784Z,5.30
2023-05-11T17:48:56.790Z,6.70
2023-05-11T17:53:58.663Z,7.90
2023-05-11T17:59:00.543Z,9.60
2023-05-11T18:04:04.047Z,6.10
2023-05-11T18:09:06.053Z,11.60
2023-05-11T18:14:10.177Z,13.00
2023-05-11T18:19:11.882Z,12.00
2023-05-11T18:24:17.736Z,4.20
2023-05-11T18:29:21.532Z,5.40
2023-05-11T18:34:23.511Z,5.10
2023-05-11T18:39:25.391Z,4.60
2023-05-11T18:44:27.676Z,4.90
2023-05-11T18:49:29.695Z,4.10
2023-05-11T18:54:31.546Z,3.80
2023-05-11T18:59:33.823Z,4.70
2023-05-11T19:04:35.708Z,10.80
2023-05-11T19:09:37.689Z,11.90
2023-05-11T19:14:39.658Z,12.80
2023-05-11T19:19:41.561Z,8.00
2023-05-11T19:24:43.313Z,7.80
2023-05-11T19:29:45.287Z,6.30
2023-05-11T19:34:47.062Z,7.10
2023-05-11T19:39:49.168Z,7.50
2023-05-11T19:44:52.340Z,5.20
2023-05-11T19:49:54.225Z,4.40
2023-05-11T19:54:56.110Z,5.80
2023-05-11T19:59:57.982Z,5.10
2023-05-11T20:05:00.163Z,5.80
2023-05-11T20:10:03.076Z,3.30
2023-05-11T20:15:09.392Z,3.20
2023-05-11T20:20:11.949Z,3.40
2023-05-11T20:25:18.495Z,2.90
2023-05-11T20:30:21.124Z,3.50
2023-05-11T20:35:23.310Z,3.80
2023-05-11T20:40:25.195Z,2.60
2023-05-11T20:45:27.116Z,3.50
2023-05-11T20:50:29.005Z,3.20
2023-05-11T20:55:30.726Z,3.00
2023-05-11T21:00:32.398Z,2.80
2023-05-11T21:05:34.682Z,2.50
2023-05-11T21:10:36.568Z,2.70
2023-05-11T21:15:38.854Z,2.80
2023-05-11T21:20:40.727Z,2.70
2023-05-11T21:25:42.807Z,3.00
2023-05-11T21:30:44.644Z,3.10
2023-05-11T21:35:47.735Z,3.30
2023-05-11T21:40:54.381Z,3.40
2023-05-11T21:45:56.218Z,4.30
2023-05-11T21:50:58.035Z,3.60
2023-05-11T21:55:59.813Z,4.20
2023-05-11T22:01:02.100Z,3.80
2023-05-11T22:06:04.197Z,3.60
2023-05-11T22:11:06.016Z,3.50
2023-05-11T22:16:08.077Z,4.00
2023-05-11T22:21:10.144Z,3.60
2023-05-11T22:26:12.108Z,4.30
2023-05-11T22:31:14.087Z,4.60
2023-05-11T22:36:15.893Z,4.70
2023-05-11T22:41:17.728Z,5.00
2023-05-11T22:46:19.598Z,5.40
2023-05-11T22:51:21.888Z,5.90
2023-05-11T22:56:23.771Z,5.70
2023-05-11T23:01:27.324Z,5.70
2023-05-11T23:06:29.576Z,5.70
2023-05-11T23:11:31.452Z,6.00
2023-05-11T23:16:33.238Z,6.40
2023-05-11T23:21:35.111Z,7.20
2023-05-11T23:26:37.293Z,8.00
2023-05-11T23:31:39.509Z,7.40
2023-05-11T23:36:41.765Z,7.40
2023-05-11T23:41:43.637Z,6.60
2023-05-11T23:46:45.743Z,6.80
2023-05-11T23:51:47.708Z,7.50
2023-05-11T23:56:49.490Z,7.80
